sensor_id;sensor_type;location;lat;lon;timestamp;temperature;humidity
7248;DHT22;3665;51.034;13.642;2023-12-29T00:13:58;6.20;1.00
7248;DHT22;3665;51.034;13.642;2023-12-29T00:18:51;6.10;1.00
7248;DHT22;3665;51.034;13.642;2023-12-29T00:56:28;6.90;1.00
7248;DHT22;3665;51.034;13.642;2023-12-29T01:01:32;7.00;1.00
7248;DHT22;3665;51.034;13.642;2023-12-29T01:07:03;7.00;1.00
7248;DHT22;3665;51.034;13.642;2023-12-29T01:11:53;7.00;1.00
7248;DHT22;3665;51.034;13.642;2023-12-29T01:16:51;7.20;1.00
7248;DHT22;3665;51.034;13.642;2023-12-29T01:21:48;7.10;1.00
7248;DHT22;3665;51.034;13.642;2023-12-29T01:26:44;7.10;1.00
7248;DHT22;3665;51.034;13.642;2023-12-29T01:31:35;7.00;1.00
7248;DHT22;3665;51.034;13.642;2023-12-29T01:36:21;6.90;1.00
7248;DHT22;3665;51.034;13.642;2023-12-29T01:46:37;7.10;1.00
7248;DHT22;3665;51.034;13.642;2023-12-29T01:52:35;7.10;1.00
7248;DHT22;3665;51.034;13.642;2023-12-29T01:57:29;7.20;1.00
7248;DHT22;3665;51.034;13.642;2023-12-29T02:02:27;7.20;1.00
7248;DHT22;3665;51.034;13.642;2023-12-29T02:07:40;7.20;1.00
7248;DHT22;3665;51.034;13.642;2023-12-29T02:18:16;6.90;1.00
7248;DHT22;3665;51.034;13.642;2023-12-29T02:23:21;6.80;1.00
7248;DHT22;3665;51.034;13.642;2023-12-29T02:28:25;6.80;1.00
7248;DHT22;3665;51.034;13.642;2023-12-29T02:38:35;6.70;1.00
7248;DHT22;3665;51.034;13.642;2023-12-29T02:50:50;6.80;1.00
7248;DHT22;3665;51.034;13.642;2023-12-29T02:56:07;7.00;1.00
7248;DHT22;3665;51.034;13.642;2023-12-29T03:01:23;7.20;1.00
7248;DHT22;3665;51.034;13.642;2023-12-29T03:06:37;7.20;1.00
7248;DHT22;3665;51.034;13.642;2023-12-29T03:11:56;7.20;1.00
7248;DHT22;3665;51.034;13.642;2023-12-29T03:16:51;7.30;1.00
7248;DHT22;3665;51.034;13.642;2023-12-29T03:21:44;7.50;1.00
7248;DHT22;3665;51.034;13.642;2023-12-29T03:26:27;7.40;1.00
7248;DHT22;3665;51.034;13.642;2023-12-29T03:31:23;7.40;1.00
7248;DHT22;3665;51.034;13.642;2023-12-29T03:36:22;7.40;1.00
7248;DHT22;3665;51.034;13.642;2023-12-29T03:46:29;7.30;1.00
7248;DHT22;3665;51.034;13.642;2023-12-29T03:51:45;7.30;1.00
7248;DHT22;3665;51.034;13.642;2023-12-29T03:56:51;7.30;1.00
7248;DHT22;3665;51.034;13.642;2023-12-29T04:02:10;7.30;1.00
7248;DHT22;3665;51.034;13.642;2023-12-29T04:06:56;7.70;1.00
7248;DHT22;3665;51.034;13.642;2023-12-29T04:23:35;7.80;1.00
7248;DHT22;3665;51.034;13.642;2023-12-29T04:28:34;7.60;1.00
7248;DHT22;3665;51.034;13.642;2023-12-29T04:33:25;7.80;1.00
7248;DHT22;3665;51.034;13.642;2023-12-29T04:38:10;7.70;1.00
7248;DHT22;3665;51.034;13.642;2023-12-29T04:50:00;7.90;1.00
7248;DHT22;3665;51.034;13.642;2023-12-29T04:54:56;7.90;1.00
7248;DHT22;3665;51.034;13.642;2023-12-29T04:59:45;7.90;1.00
7248;DHT22;3665;51.034;13.642;2023-12-29T05:04:31;7.90;1.00
7248;DHT22;3665;51.034;13.642;2023-12-29T05:09:38;7.80;1.00
7248;DHT22;3665;51.034;13.642;2023-12-29T05:14:39;7.80;1.00
7248;DHT22;3665;51.034;13.642;2023-12-29T05:19:29;7.80;1.00
7248;DHT22;3665;51.034;13.642;2023-12-29T05:29:51;7.60;1.00
7248;DHT22;3665;51.034;13.642;2023-12-29T05:35:03;7.80;1.00
7248;DHT22;3665;51.034;13.642;2023-12-29T05:46:13;7.80;1.00
7248;DHT22;3665;51.034;13.642;2023-12-29T05:57:04;7.70;1.00
7248;DHT22;3665;51.034;13.642;2023-12-29T06:18:26;7.60;1.00
7248;DHT22;3665;51.034;13.642;2023-12-29T06:23:11;7.60;1.00
7248;DHT22;3665;51.034;13.642;2023-12-29T06:28:07;7.60;1.00
7248;DHT22;3665;51.034;13.642;2023-12-29T06:33:04;7.80;1.00
7248;DHT22;3665;51.034;13.642;2023-12-29T06:37:54;7.70;1.00
7248;DHT22;3665;51.034;13.642;2023-12-29T06:42:42;7.70;1.00
7248;DHT22;3665;51.034;13.642;2023-12-29T06:47:46;7.80;1.00
7248;DHT22;3665;51.034;13.642;2023-12-29T06:52:33;7.80;1.00
7248;DHT22;3665;51.034;13.642;2023-12-29T06:57:40;7.90;1.00
7248;DHT22;3665;51.034;13.642;2023-12-29T07:07:48;7.90;1.00
7248;DHT22;3665;51.034;13.642;2023-12-29T07:12:51;8.00;1.00
7248;DHT22;3665;51.034;13.642;2023-12-29T07:17:35;8.00;1.00
7248;DHT22;3665;51.034;13.642;2023-12-29T07:22:29;8.00;1.00
7248;DHT22;3665;51.034;13.642;2023-12-29T07:27:13;8.00;1.00
7248;DHT22;3665;51.034;13.642;2023-12-29T07:32:02;8.00;1.00
7248;DHT22;3665;51.034;13.642;2023-12-29T07:37:06;8.00;1.00
7248;DHT22;3665;51.034;13.642;2023-12-29T07:41:53;8.00;1.00
7248;DHT22;3665;51.034;13.642;2023-12-29T07:46:40;8.00;1.00
7248;DHT22;3665;51.034;13.642;2023-12-29T07:51:27;8.00;1.00
7248;DHT22;3665;51.034;13.642;2023-12-29T07:56:19;8.10;1.00
7248;DHT22;3665;51.034;13.642;2023-12-29T08:01:04;7.90;1.00
7248;DHT22;3665;51.034;13.642;2023-12-29T08:05:55;8.10;1.00
7248;DHT22;3665;51.034;13.642;2023-12-29T08:10:40;8.10;1.00
7248;DHT22;3665;51.034;13.642;2023-12-29T08:15:30;8.20;1.00
7248;DHT22;3665;51.034;13.642;2023-12-29T08:20:16;8.20;1.00
7248;DHT22;3665;51.034;13.642;2023-12-29T08:25:03;8.40;1.00
7248;DHT22;3665;51.034;13.642;2023-12-29T08:29:55;8.50;1.00
7248;DHT22;3665;51.034;13.642;2023-12-29T08:34:42;8.70;1.00
7248;DHT22;3665;51.034;13.642;2023-12-29T08:39:29;8.70;1.00
7248;DHT22;3665;51.034;13.642;2023-12-29T08:44:18;8.80;1.00
7248;DHT22;3665;51.034;13.642;2023-12-29T08:49:07;8.90;1.00
7248;DHT22;3665;51.034;13.642;2023-12-29T08:53:52;8.80;1.00
7248;DHT22;3665;51.034;13.642;2023-12-29T08:58:40;8.80;1.00
7248;DHT22;3665;51.034;13.642;2023-12-29T09:03:30;8.80;1.00
7248;DHT22;3665;51.034;13.642;2023-12-29T09:08:20;8.80;1.00
7248;DHT22;3665;51.034;13.642;2023-12-29T09:13:05;8.90;1.00
7248;DHT22;3665;51.034;13.642;2023-12-29T09:17:53;9.00;1.00
7248;DHT22;3665;51.034;13.642;2023-12-29T09:22:40;8.90;1.00
7248;DHT22;3665;51.034;13.642;2023-12-29T09:27:35;9.00;1.00
7248;DHT22;3665;51.034;13.642;2023-12-29T09:32:32;9.00;1.00
7248;DHT22;3665;51.034;13.642;2023-12-29T09:37:24;9.00;1.00
7248;DHT22;3665;51.034;13.642;2023-12-29T09:42:10;9.10;1.00
7248;DHT22;3665;51.034;13.642;2023-12-29T09:47:03;9.00;1.00
7248;DHT22;3665;51.034;13.642;2023-12-29T09:52:20;9.20;1.00
7248;DHT22;3665;51.034;13.642;2023-12-29T09:57:20;9.30;1.00
7248;DHT22;3665;51.034;13.642;2023-12-29T10:02:15;9.40;1.00
7248;DHT22;3665;51.034;13.642;2023-12-29T10:07:22;9.40;1.00
7248;DHT22;3665;51.034;13.642;2023-12-29T10:12:17;9.50;1.00
7248;DHT22;3665;51.034;13.642;2023-12-29T10:22:48;9.60;1.00
7248;DHT22;3665;51.034;13.642;2023-12-29T10:27:43;9.60;1.00
7248;DHT22;3665;51.034;13.642;2023-12-29T10:32:32;9.70;1.00
7248;DHT22;3665;51.034;13.642;2023-12-29T10:37:22;9.80;1.00
7248;DHT22;3665;51.034;13.642;2023-12-29T10:42:10;9.80;1.00
7248;DHT22;3665;51.034;13.642;2023-12-29T10:47:13;9.70;1.00
7248;DHT22;3665;51.034;13.642;2023-12-29T10:52:16;9.70;1.00
7248;DHT22;3665;51.034;13.642;2023-12-29T10:57:04;9.70;1.00
7248;DHT22;3665;51.034;13.642;2023-12-29T11:07:38;9.90;1.00
7248;DHT22;3665;51.034;13.642;2023-12-29T11:13:04;9.90;1.00
7248;DHT22;3665;51.034;13.642;2023-12-29T11:17:53;9.90;1.00
7248;DHT22;3665;51.034;13.642;2023-12-29T11:22:43;9.90;1.00
7248;DHT22;3665;51.034;13.642;2023-12-29T11:27:28;10.00;1.00
7248;DHT22;3665;51.034;13.642;2023-12-29T11:32:38;9.90;1.00
7248;DHT22;3665;51.034;13.642;2023-12-29T11:43:11;10.00;1.00
7248;DHT22;3665;51.034;13.642;2023-12-29T11:48:00;10.00;1.00
7248;DHT22;3665;51.034;13.642;2023-12-29T11:52:49;10.10;1.00
7248;DHT22;3665;51.034;13.642;2023-12-29T11:57:36;10.20;1.00
7248;DHT22;3665;51.034;13.642;2023-12-29T12:02:40;10.00;1.00
7248;DHT22;3665;51.034;13.642;2023-12-29T12:08:01;10.00;1.00
7248;DHT22;3665;51.034;13.642;2023-12-29T12:13:03;9.90;1.00
7248;DHT22;3665;51.034;13.642;2023-12-29T12:18:10;9.90;1.00
7248;DHT22;3665;51.034;13.642;2023-12-29T12:22:59;9.80;1.00
7248;DHT22;3665;51.034;13.642;2023-12-29T12:28:16;9.80;1.00
7248;DHT22;3665;51.034;13.642;2023-12-29T12:33:11;9.80;1.00
7248;DHT22;3665;51.034;13.642;2023-12-29T12:39:16;9.90;1.00
7248;DHT22;3665;51.034;13.642;2023-12-29T12:44:48;10.00;1.00
7248;DHT22;3665;51.034;13.642;2023-12-29T12:50:13;9.90;1.00
7248;DHT22;3665;51.034;13.642;2023-12-29T12:54:57;9.90;1.00
7248;DHT22;3665;51.034;13.642;2023-12-29T12:59:45;9.90;1.00
7248;DHT22;3665;51.034;13.642;2023-12-29T13:04:35;10.00;1.00
7248;DHT22;3665;51.034;13.642;2023-12-29T13:09:23;10.20;1.00
7248;DHT22;3665;51.034;13.642;2023-12-29T13:14:27;10.10;1.00
7248;DHT22;3665;51.034;13.642;2023-12-29T13:19:35;10.00;1.00
7248;DHT22;3665;51.034;13.642;2023-12-29T13:30:26;10.10;1.00
7248;DHT22;3665;51.034;13.642;2023-12-29T13:35:33;10.10;1.00
7248;DHT22;3665;51.034;13.642;2023-12-29T13:47:37;10.10;1.00
7248;DHT22;3665;51.034;13.642;2023-12-29T13:54:00;10.00;1.00
7248;DHT22;3665;51.034;13.642;2023-12-29T13:58:56;10.10;1.00
7248;DHT22;3665;51.034;13.642;2023-12-29T14:04:20;10.00;1.00
7248;DHT22;3665;51.034;13.642;2023-12-29T14:09:04;10.10;1.00
7248;DHT22;3665;51.034;13.642;2023-12-29T14:13:51;10.10;1.00
7248;DHT22;3665;51.034;13.642;2023-12-29T14:18:57;10.10;1.00
7248;DHT22;3665;51.034;13.642;2023-12-29T14:24:08;10.10;1.00
7248;DHT22;3665;51.034;13.642;2023-12-29T14:29:07;10.20;1.00
7248;DHT22;3665;51.034;13.642;2023-12-29T14:33:51;10.10;1.00
7248;DHT22;3665;51.034;13.642;2023-12-29T14:38:40;10.10;1.00
7248;DHT22;3665;51.034;13.642;2023-12-29T14:43:46;10.10;1.00
7248;DHT22;3665;51.034;13.642;2023-12-29T14:48:32;10.10;1.00
7248;DHT22;3665;51.034;13.642;2023-12-29T14:53:20;10.10;1.00
7248;DHT22;3665;51.034;13.642;2023-12-29T14:58:08;9.90;1.00
7248;DHT22;3665;51.034;13.642;2023-12-29T15:02:58;9.90;1.00
7248;DHT22;3665;51.034;13.642;2023-12-29T15:07:44;9.90;1.00
7248;DHT22;3665;51.034;13.642;2023-12-29T15:34:57;10.10;1.00
7248;DHT22;3665;51.034;13.642;2023-12-29T15:39:48;10.00;1.00
7248;DHT22;3665;51.034;13.642;2023-12-29T15:44:32;10.10;1.00
7248;DHT22;3665;51.034;13.642;2023-12-29T15:49:16;10.00;1.00
7248;DHT22;3665;51.034;13.642;2023-12-29T15:54:05;10.00;1.00
7248;DHT22;3665;51.034;13.642;2023-12-29T15:58:55;9.90;1.00
7248;DHT22;3665;51.034;13.642;2023-12-29T16:03:48;9.80;1.00
7248;DHT22;3665;51.034;13.642;2023-12-29T16:08:39;9.70;1.00
7248;DHT22;3665;51.034;13.642;2023-12-29T16:13:29;9.70;1.00
7248;DHT22;3665;51.034;13.642;2023-12-29T16:18:24;9.70;1.00
7248;DHT22;3665;51.034;13.642;2023-12-29T16:23:11;9.80;1.00
7248;DHT22;3665;51.034;13.642;2023-12-29T16:27:57;9.70;1.00
7248;DHT22;3665;51.034;13.642;2023-12-29T16:32:51;9.70;1.00
7248;DHT22;3665;51.034;13.642;2023-12-29T16:37:38;9.60;1.00
7248;DHT22;3665;51.034;13.642;2023-12-29T16:42:21;9.60;1.00
7248;DHT22;3665;51.034;13.642;2023-12-29T16:47:10;9.50;1.00
7248;DHT22;3665;51.034;13.642;2023-12-29T16:52:18;9.50;1.00
7248;DHT22;3665;51.034;13.642;2023-12-29T16:57:05;9.40;1.00
7248;DHT22;3665;51.034;13.642;2023-12-29T17:01:53;9.40;1.00
7248;DHT22;3665;51.034;13.642;2023-12-29T17:06:40;9.40;1.00
7248;DHT22;3665;51.034;13.642;2023-12-29T17:11:29;9.40;1.00
7248;DHT22;3665;51.034;13.642;2023-12-29T17:16:19;9.30;1.00
7248;DHT22;3665;51.034;13.642;2023-12-29T17:21:19;9.20;1.00
7248;DHT22;3665;51.034;13.642;2023-12-29T17:26:11;9.20;1.00
7248;DHT22;3665;51.034;13.642;2023-12-29T17:30:58;9.30;1.00
7248;DHT22;3665;51.034;13.642;2023-12-29T17:35:45;9.30;1.00
7248;DHT22;3665;51.034;13.642;2023-12-29T17:40:32;9.20;1.00
7248;DHT22;3665;51.034;13.642;2023-12-29T17:45:19;9.30;1.00
7248;DHT22;3665;51.034;13.642;2023-12-29T17:50:25;9.30;1.00
7248;DHT22;3665;51.034;13.642;2023-12-29T17:55:13;9.40;1.00
7248;DHT22;3665;51.034;13.642;2023-12-29T17:59:59;9.30;1.00
7248;DHT22;3665;51.034;13.642;2023-12-29T18:04:46;9.40;1.00
7248;DHT22;3665;51.034;13.642;2023-12-29T18:09:55;9.10;1.00
7248;DHT22;3665;51.034;13.642;2023-12-29T18:14:40;9.20;1.00
7248;DHT22;3665;51.034;13.642;2023-12-29T18:19:27;9.30;1.00
7248;DHT22;3665;51.034;13.642;2023-12-29T18:24:16;9.40;1.00
7248;DHT22;3665;51.034;13.642;2023-12-29T18:29:06;9.40;1.00
7248;DHT22;3665;51.034;13.642;2023-12-29T18:33:53;9.50;1.00
7248;DHT22;3665;51.034;13.642;2023-12-29T18:38:39;9.70;1.00
7248;DHT22;3665;51.034;13.642;2023-12-29T18:43:28;9.70;1.00
7248;DHT22;3665;51.034;13.642;2023-12-29T18:48:19;9.60;1.00
7248;DHT22;3665;51.034;13.642;2023-12-29T18:53:08;9.70;1.00
7248;DHT22;3665;51.034;13.642;2023-12-29T18:58:00;9.70;1.00
7248;DHT22;3665;51.034;13.642;2023-12-29T19:03:13;9.80;1.00
7248;DHT22;3665;51.034;13.642;2023-12-29T19:08:02;9.60;1.00
7248;DHT22;3665;51.034;13.642;2023-12-29T19:12:49;9.70;1.00
7248;DHT22;3665;51.034;13.642;2023-12-29T19:17:36;9.70;1.00
7248;DHT22;3665;51.034;13.642;2023-12-29T19:22:23;9.60;1.00
7248;DHT22;3665;51.034;13.642;2023-12-29T19:27:12;9.50;1.00
7248;DHT22;3665;51.034;13.642;2023-12-29T19:31:59;9.40;1.00
7248;DHT22;3665;51.034;13.642;2023-12-29T19:36:48;9.30;1.00
7248;DHT22;3665;51.034;13.642;2023-12-29T19:41:35;9.20;1.00
7248;DHT22;3665;51.034;13.642;2023-12-29T19:46:28;9.20;1.00
7248;DHT22;3665;51.034;13.642;2023-12-29T19:51:14;9.20;1.00
7248;DHT22;3665;51.034;13.642;2023-12-29T19:56:02;9.20;1.00
7248;DHT22;3665;51.034;13.642;2023-12-29T20:00:49;9.20;1.00
7248;DHT22;3665;51.034;13.642;2023-12-29T20:11:14;9.30;1.00
7248;DHT22;3665;51.034;13.642;2023-12-29T20:15:59;9.50;1.00
7248;DHT22;3665;51.034;13.642;2023-12-29T20:20:50;9.60;1.00
7248;DHT22;3665;51.034;13.642;2023-12-29T20:25:37;9.60;1.00
7248;DHT22;3665;51.034;13.642;2023-12-29T20:30:27;9.70;1.00
7248;DHT22;3665;51.034;13.642;2023-12-29T20:35:12;9.70;1.00
7248;DHT22;3665;51.034;13.642;2023-12-29T20:40:00;9.80;1.00
7248;DHT22;3665;51.034;13.642;2023-12-29T20:44:51;9.90;1.00
7248;DHT22;3665;51.034;13.642;2023-12-29T20:49:38;9.90;1.00
7248;DHT22;3665;51.034;13.642;2023-12-29T20:54:23;9.90;1.00
7248;DHT22;3665;51.034;13.642;2023-12-29T20:59:17;9.90;1.00
7248;DHT22;3665;51.034;13.642;2023-12-29T21:04:18;10.00;1.00
7248;DHT22;3665;51.034;13.642;2023-12-29T21:09:05;10.00;1.00
7248;DHT22;3665;51.034;13.642;2023-12-29T21:13:53;9.80;1.00
7248;DHT22;3665;51.034;13.642;2023-12-29T21:18:41;9.60;1.00
7248;DHT22;3665;51.034;13.642;2023-12-29T21:23:29;9.50;1.00
7248;DHT22;3665;51.034;13.642;2023-12-29T21:28:17;9.50;1.00
7248;DHT22;3665;51.034;13.642;2023-12-29T21:33:04;9.40;1.00
7248;DHT22;3665;51.034;13.642;2023-12-29T21:37:55;9.50;1.00
7248;DHT22;3665;51.034;13.642;2023-12-29T21:42:41;9.70;1.00
7248;DHT22;3665;51.034;13.642;2023-12-29T21:47:30;9.70;1.00
7248;DHT22;3665;51.034;13.642;2023-12-29T21:52:16;9.70;1.00
7248;DHT22;3665;51.034;13.642;2023-12-29T21:57:04;9.70;1.00
7248;DHT22;3665;51.034;13.642;2023-12-29T22:01:51;9.50;1.00
7248;DHT22;3665;51.034;13.642;2023-12-29T22:07:03;9.50;1.00
